Leesburg International Airport Leesburg US
ICAO: KLEE
IATA: LEE
Category: Medium
Scheduled Services: No

Elevation: 76 ft
TransAlt. 18000 ft.

Airport Communications:
ORLANDO APP/DEP:121.1
ASOS:134.325
CTAF/UNICOM:122.725

KLEE Zoom In..

If you have problems with the map follow the link
https://www.worldairports.se/pages/airport.php?
ICAO=KLEE

Runways:

(A) RW 03 length 4957 ft width 100 ft
---- / hdg 40

(B) RW 13 length 6300 ft width 100 ft
---- / hdg 135

(C) RW 21 length 4957 ft width 100 ft
---- / hdg 220

(D) RW 31 length 6300 ft width 100 ft
---- / hdg 315

Location; KLEE
Day. 20 / Time. 20.53 Zulu
* Altimeter: 30.05
* Temperature: 28° c. 82.4°f.
* Wind from: 120° Speed 07 kn.
Dewpoint: 20° c.
Visibility: 10 Statute Miles.
Clouds: Few 4300 ft.
Clouds: Few 5500 ft.
Clouds: Scattered 8000 ft.

KLEE 202053Z 12007KT 10SM FEW043 FEW055 SCT080 28/20 A3005 RMK AO2 SLP174 T02780200 56017


Wind From 120°
Speed 07 kn.

 
 
jpsmedia.com for Web Design worldairports.se 2019   terms of use